sensor_id;sensor_type;location;lat;lon;timestamp;P1;durP1;ratioP1;P2;durP2;ratioP2
40449;SDS011;41787;53.570;10.032;2022-12-18T00:02:02;28.25;;;15.55;;
40449;SDS011;41787;53.570;10.032;2022-12-18T00:04:38;31.45;;;14.98;;
40449;SDS011;41787;53.570;10.032;2022-12-18T00:07:14;29.15;;;13.57;;
40449;SDS011;41787;53.570;10.032;2022-12-18T00:09:40;36.95;;;15.88;;
40449;SDS011;41787;53.570;10.032;2022-12-18T00:12:09;30.70;;;13.17;;
40449;SDS011;41787;53.570;10.032;2022-12-18T00:14:35;22.50;;;13.40;;
40449;SDS011;41787;53.570;10.032;2022-12-18T00:17:01;34.72;;;15.02;;
40449;SDS011;41787;53.570;10.032;2022-12-18T00:19:28;27.02;;;14.48;;
40449;SDS011;41787;53.570;10.032;2022-12-18T00:21:54;30.30;;;15.13;;
40449;SDS011;41787;53.570;10.032;2022-12-18T00:24:26;32.38;;;15.30;;
40449;SDS011;41787;53.570;10.032;2022-12-18T00:27:01;29.23;;;15.40;;
40449;SDS011;41787;53.570;10.032;2022-12-18T00:29:57;24.17;;;13.98;;
40449;SDS011;41787;53.570;10.032;2022-12-18T00:32:23;29.50;;;13.73;;
40449;SDS011;41787;53.570;10.032;2022-12-18T00:34:49;24.88;;;14.30;;
40449;SDS011;41787;53.570;10.032;2022-12-18T00:37:15;25.42;;;14.70;;
40449;SDS011;41787;53.570;10.032;2022-12-18T00:39:41;26.48;;;13.18;;
40449;SDS011;41787;53.570;10.032;2022-12-18T00:42:07;27.70;;;15.70;;
40449;SDS011;41787;53.570;10.032;2022-12-18T00:44:52;25.95;;;13.57;;
40449;SDS011;41787;53.570;10.032;2022-12-18T00:47:18;27.85;;;13.57;;
40449;SDS011;41787;53.570;10.032;2022-12-18T00:49:44;27.95;;;15.50;;
40449;SDS011;41787;53.570;10.032;2022-12-18T00:52:10;27.75;;;14.98;;
40449;SDS011;41787;53.570;10.032;2022-12-18T00:54:36;26.63;;;14.43;;
40449;SDS011;41787;53.570;10.032;2022-12-18T00:57:02;25.13;;;14.77;;
40449;SDS011;41787;53.570;10.032;2022-12-18T00:59:27;24.15;;;13.27;;
40449;SDS011;41787;53.570;10.032;2022-12-18T01:01:55;26.10;;;13.90;;
40449;SDS011;41787;53.570;10.032;2022-12-18T01:04:21;22.88;;;13.90;;
40449;SDS011;41787;53.570;10.032;2022-12-18T01:07:00;29.40;;;13.68;;
40449;SDS011;41787;53.570;10.032;2022-12-18T01:12:27;31.10;;;14.27;;
40449;SDS011;41787;53.570;10.032;2022-12-18T01:14:53;22.08;;;12.93;;
40449;SDS011;41787;53.570;10.032;2022-12-18T01:17:20;22.92;;;13.90;;
40449;SDS011;41787;53.570;10.032;2022-12-18T01:19:48;27.02;;;14.57;;
40449;SDS011;41787;53.570;10.032;2022-12-18T01:22:14;26.17;;;13.35;;
40449;SDS011;41787;53.570;10.032;2022-12-18T01:24:41;24.52;;;13.70;;
40449;SDS011;41787;53.570;10.032;2022-12-18T01:27:07;24.80;;;14.90;;
40449;SDS011;41787;53.570;10.032;2022-12-18T01:29:33;26.00;;;14.75;;
40449;SDS011;41787;53.570;10.032;2022-12-18T01:31:59;26.20;;;14.27;;
40449;SDS011;41787;53.570;10.032;2022-12-18T01:34:25;27.58;;;13.98;;
40449;SDS011;41787;53.570;10.032;2022-12-18T01:36:51;30.92;;;14.07;;
40449;SDS011;41787;53.570;10.032;2022-12-18T01:39:20;25.95;;;12.98;;
40449;SDS011;41787;53.570;10.032;2022-12-18T01:41:46;26.15;;;13.57;;
40449;SDS011;41787;53.570;10.032;2022-12-18T01:47:15;23.98;;;12.23;;
40449;SDS011;41787;53.570;10.032;2022-12-18T01:49:43;23.92;;;13.35;;
40449;SDS011;41787;53.570;10.032;2022-12-18T01:52:09;26.77;;;13.55;;
40449;SDS011;41787;53.570;10.032;2022-12-18T01:54:36;26.83;;;12.77;;
40449;SDS011;41787;53.570;10.032;2022-12-18T01:57:02;22.33;;;11.93;;
40449;SDS011;41787;53.570;10.032;2022-12-18T01:59:28;27.48;;;12.70;;
40449;SDS011;41787;53.570;10.032;2022-12-18T02:01:55;21.70;;;11.52;;
40449;SDS011;41787;53.570;10.032;2022-12-18T02:04:23;25.05;;;12.73;;
40449;SDS011;41787;53.570;10.032;2022-12-18T02:06:51;23.10;;;12.98;;
40449;SDS011;41787;53.570;10.032;2022-12-18T02:09:20;24.08;;;13.05;;
40449;SDS011;41787;53.570;10.032;2022-12-18T02:14:36;20.95;;;12.43;;
40449;SDS011;41787;53.570;10.032;2022-12-18T02:17:10;19.65;;;11.57;;
40449;SDS011;41787;53.570;10.032;2022-12-18T02:19:52;19.00;;;11.48;;
40449;SDS011;41787;53.570;10.032;2022-12-18T02:22:25;19.55;;;11.02;;
40449;SDS011;41787;53.570;10.032;2022-12-18T02:27:53;22.75;;;11.68;;
40449;SDS011;41787;53.570;10.032;2022-12-18T02:30:21;20.58;;;11.35;;
40449;SDS011;41787;53.570;10.032;2022-12-18T02:32:49;23.48;;;11.73;;
40449;SDS011;41787;53.570;10.032;2022-12-18T02:35:17;31.83;;;12.13;;
40449;SDS011;41787;53.570;10.032;2022-12-18T02:37:45;18.67;;;9.90;;
40449;SDS011;41787;53.570;10.032;2022-12-18T02:40:12;18.52;;;11.05;;
40449;SDS011;41787;53.570;10.032;2022-12-18T02:42:39;20.00;;;11.38;;
40449;SDS011;41787;53.570;10.032;2022-12-18T02:45:05;21.23;;;11.70;;
40449;SDS011;41787;53.570;10.032;2022-12-18T02:47:32;18.90;;;11.27;;
40449;SDS011;41787;53.570;10.032;2022-12-18T02:50:05;20.73;;;11.52;;
40449;SDS011;41787;53.570;10.032;2022-12-18T03:00:45;15.68;;;10.18;;
40449;SDS011;41787;53.570;10.032;2022-12-18T03:06:14;22.52;;;11.00;;
40449;SDS011;41787;53.570;10.032;2022-12-18T03:08:45;18.38;;;11.35;;
40449;SDS011;41787;53.570;10.032;2022-12-18T03:11:13;20.70;;;10.35;;
40449;SDS011;41787;53.570;10.032;2022-12-18T03:13:43;21.95;;;11.23;;
40449;SDS011;41787;53.570;10.032;2022-12-18T03:16:11;24.95;;;11.95;;
40449;SDS011;41787;53.570;10.032;2022-12-18T03:21:12;21.08;;;10.18;;
40449;SDS011;41787;53.570;10.032;2022-12-18T03:23:49;18.52;;;9.95;;
40449;SDS011;41787;53.570;10.032;2022-12-18T03:26:19;18.20;;;10.18;;
40449;SDS011;41787;53.570;10.032;2022-12-18T03:28:47;17.35;;;9.93;;
40449;SDS011;41787;53.570;10.032;2022-12-18T03:31:14;21.77;;;10.98;;
40449;SDS011;41787;53.570;10.032;2022-12-18T03:33:43;18.17;;;9.48;;
40449;SDS011;41787;53.570;10.032;2022-12-18T03:36:11;20.17;;;10.02;;
40449;SDS011;41787;53.570;10.032;2022-12-18T03:38:38;19.55;;;10.93;;
40449;SDS011;41787;53.570;10.032;2022-12-18T03:41:10;18.27;;;10.30;;
40449;SDS011;41787;53.570;10.032;2022-12-18T03:43:47;20.48;;;9.68;;
40449;SDS011;41787;53.570;10.032;2022-12-18T03:46:30;17.20;;;9.63;;
40449;SDS011;41787;53.570;10.032;2022-12-18T03:48:59;19.25;;;9.77;;
40449;SDS011;41787;53.570;10.032;2022-12-18T03:51:34;21.13;;;11.35;;
40449;SDS011;41787;53.570;10.032;2022-12-18T03:54:03;21.52;;;10.13;;
40449;SDS011;41787;53.570;10.032;2022-12-18T03:56:31;16.73;;;10.05;;
40449;SDS011;41787;53.570;10.032;2022-12-18T03:58:59;23.48;;;10.82;;
40449;SDS011;41787;53.570;10.032;2022-12-18T04:01:33;17.83;;;10.15;;
40449;SDS011;41787;53.570;10.032;2022-12-18T04:04:01;19.20;;;10.48;;
40449;SDS011;41787;53.570;10.032;2022-12-18T04:06:28;20.10;;;10.40;;
40449;SDS011;41787;53.570;10.032;2022-12-18T04:08:54;20.38;;;10.15;;
40449;SDS011;41787;53.570;10.032;2022-12-18T04:11:20;18.15;;;9.95;;
40449;SDS011;41787;53.570;10.032;2022-12-18T04:13:46;16.55;;;9.27;;
40449;SDS011;41787;53.570;10.032;2022-12-18T04:16:12;18.27;;;9.70;;
40449;SDS011;41787;53.570;10.032;2022-12-18T04:18:38;18.67;;;9.68;;
40449;SDS011;41787;53.570;10.032;2022-12-18T04:21:04;17.13;;;10.55;;
40449;SDS011;41787;53.570;10.032;2022-12-18T04:23:30;24.45;;;8.85;;
40449;SDS011;41787;53.570;10.032;2022-12-18T04:25:56;14.95;;;9.13;;
40449;SDS011;41787;53.570;10.032;2022-12-18T04:28:22;19.45;;;10.05;;
40449;SDS011;41787;53.570;10.032;2022-12-18T04:30:48;22.17;;;9.85;;
40449;SDS011;41787;53.570;10.032;2022-12-18T04:33:14;14.95;;;8.98;;
40449;SDS011;41787;53.570;10.032;2022-12-18T04:35:40;14.57;;;9.52;;
40449;SDS011;41787;53.570;10.032;2022-12-18T04:38:07;17.73;;;10.13;;
40449;SDS011;41787;53.570;10.032;2022-12-18T04:40:33;16.05;;;9.65;;
40449;SDS011;41787;53.570;10.032;2022-12-18T04:43:01;19.90;;;9.30;;
40449;SDS011;41787;53.570;10.032;2022-12-18T04:45:27;19.92;;;10.02;;
40449;SDS011;41787;53.570;10.032;2022-12-18T04:47:53;19.27;;;10.18;;
40449;SDS011;41787;53.570;10.032;2022-12-18T04:50:19;20.00;;;9.57;;
40449;SDS011;41787;53.570;10.032;2022-12-18T04:52:45;15.73;;;9.23;;
40449;SDS011;41787;53.570;10.032;2022-12-18T04:55:11;15.35;;;8.95;;
40449;SDS011;41787;53.570;10.032;2022-12-18T04:57:37;17.40;;;9.88;;
40449;SDS011;41787;53.570;10.032;2022-12-18T05:00:03;15.48;;;8.82;;
40449;SDS011;41787;53.570;10.032;2022-12-18T05:02:31;14.07;;;9.18;;
40449;SDS011;41787;53.570;10.032;2022-12-18T05:04:58;19.05;;;9.07;;
40449;SDS011;41787;53.570;10.032;2022-12-18T05:07:24;16.25;;;9.85;;
40449;SDS011;41787;53.570;10.032;2022-12-18T05:09:50;16.15;;;9.10;;
40449;SDS011;41787;53.570;10.032;2022-12-18T05:12:16;18.23;;;10.52;;
40449;SDS011;41787;53.570;10.032;2022-12-18T05:14:41;15.52;;;9.63;;
40449;SDS011;41787;53.570;10.032;2022-12-18T05:17:07;18.83;;;9.07;;
40449;SDS011;41787;53.570;10.032;2022-12-18T05:19:33;17.15;;;9.88;;
40449;SDS011;41787;53.570;10.032;2022-12-18T05:21:59;16.23;;;8.80;;
40449;SDS011;41787;53.570;10.032;2022-12-18T05:24:26;23.67;;;9.60;;
40449;SDS011;41787;53.570;10.032;2022-12-18T05:26:52;15.77;;;9.13;;
40449;SDS011;41787;53.570;10.032;2022-12-18T05:29:18;20.05;;;9.27;;
40449;SDS011;41787;53.570;10.032;2022-12-18T05:31:44;17.75;;;10.10;;
40449;SDS011;41787;53.570;10.032;2022-12-18T05:34:10;15.35;;;9.40;;
40449;SDS011;41787;53.570;10.032;2022-12-18T05:36:36;16.85;;;9.27;;
40449;SDS011;41787;53.570;10.032;2022-12-18T05:39:02;14.27;;;8.35;;
40449;SDS011;41787;53.570;10.032;2022-12-18T05:41:28;19.63;;;9.60;;
40449;SDS011;41787;53.570;10.032;2022-12-18T05:43:54;16.35;;;9.32;;
40449;SDS011;41787;53.570;10.032;2022-12-18T05:46:20;19.23;;;9.52;;
40449;SDS011;41787;53.570;10.032;2022-12-18T05:48:46;23.65;;;9.88;;
40449;SDS011;41787;53.570;10.032;2022-12-18T05:51:14;16.63;;;9.70;;
40449;SDS011;41787;53.570;10.032;2022-12-18T05:53:43;15.90;;;9.45;;
40449;SDS011;41787;53.570;10.032;2022-12-18T05:56:11;17.67;;;9.70;;
40449;SDS011;41787;53.570;10.032;2022-12-18T05:58:37;17.05;;;9.55;;
40449;SDS011;41787;53.570;10.032;2022-12-18T06:01:14;18.70;;;10.25;;
40449;SDS011;41787;53.570;10.032;2022-12-18T06:03:40;19.25;;;9.93;;
40449;SDS011;41787;53.570;10.032;2022-12-18T06:06:17;17.98;;;10.30;;
40449;SDS011;41787;53.570;10.032;2022-12-18T06:08:46;19.75;;;10.25;;
40449;SDS011;41787;53.570;10.032;2022-12-18T06:11:12;16.25;;;9.75;;
40449;SDS011;41787;53.570;10.032;2022-12-18T06:13:38;16.83;;;9.43;;
40449;SDS011;41787;53.570;10.032;2022-12-18T06:16:04;23.10;;;10.57;;
40449;SDS011;41787;53.570;10.032;2022-12-18T06:18:31;21.50;;;10.52;;
40449;SDS011;41787;53.570;10.032;2022-12-18T06:20:58;16.50;;;9.75;;
40449;SDS011;41787;53.570;10.032;2022-12-18T06:23:24;19.73;;;9.73;;
40449;SDS011;41787;53.570;10.032;2022-12-18T06:25:57;19.13;;;10.43;;
40449;SDS011;41787;53.570;10.032;2022-12-18T06:28:23;23.45;;;10.38;;
40449;SDS011;41787;53.570;10.032;2022-12-18T06:30:49;22.27;;;10.65;;
40449;SDS011;41787;53.570;10.032;2022-12-18T06:33:15;18.50;;;10.00;;
40449;SDS011;41787;53.570;10.032;2022-12-18T06:35:41;19.90;;;10.23;;
40449;SDS011;41787;53.570;10.032;2022-12-18T06:38:07;28.63;;;10.68;;
40449;SDS011;41787;53.570;10.032;2022-12-18T06:40:33;28.85;;;11.13;;
40449;SDS011;41787;53.570;10.032;2022-12-18T06:42:59;15.55;;;10.57;;
40449;SDS011;41787;53.570;10.032;2022-12-18T06:45:25;20.08;;;10.25;;
40449;SDS011;41787;53.570;10.032;2022-12-18T06:47:51;18.60;;;10.48;;
40449;SDS011;41787;53.570;10.032;2022-12-18T06:50:17;19.58;;;11.10;;
40449;SDS011;41787;53.570;10.032;2022-12-18T06:52:43;20.63;;;9.95;;
40449;SDS011;41787;53.570;10.032;2022-12-18T06:55:10;21.63;;;10.27;;
40449;SDS011;41787;53.570;10.032;2022-12-18T06:57:36;17.77;;;9.57;;
40449;SDS011;41787;53.570;10.032;2022-12-18T07:00:03;20.50;;;11.23;;
40449;SDS011;41787;53.570;10.032;2022-12-18T07:02:29;17.23;;;10.50;;
40449;SDS011;41787;53.570;10.032;2022-12-18T07:04:55;23.42;;;10.60;;
40449;SDS011;41787;53.570;10.032;2022-12-18T07:07:21;21.48;;;10.88;;
40449;SDS011;41787;53.570;10.032;2022-12-18T07:09:47;22.48;;;10.85;;
40449;SDS011;41787;53.570;10.032;2022-12-18T07:12:14;17.20;;;9.55;;
40449;SDS011;41787;53.570;10.032;2022-12-18T07:14:40;19.33;;;10.38;;
40449;SDS011;41787;53.570;10.032;2022-12-18T07:17:06;25.90;;;11.05;;
40449;SDS011;41787;53.570;10.032;2022-12-18T07:19:32;19.05;;;10.48;;
40449;SDS011;41787;53.570;10.032;2022-12-18T07:21:58;19.10;;;10.90;;
40449;SDS011;41787;53.570;10.032;2022-12-18T07:24:24;21.75;;;10.95;;
40449;SDS011;41787;53.570;10.032;2022-12-18T07:26:50;19.00;;;10.93;;
40449;SDS011;41787;53.570;10.032;2022-12-18T07:29:16;24.77;;;10.63;;
40449;SDS011;41787;53.570;10.032;2022-12-18T07:31:42;27.70;;;11.38;;
40449;SDS011;41787;53.570;10.032;2022-12-18T07:34:11;20.48;;;10.75;;
40449;SDS011;41787;53.570;10.032;2022-12-18T07:36:38;21.60;;;10.27;;
40449;SDS011;41787;53.570;10.032;2022-12-18T07:39:04;19.08;;;10.95;;
40449;SDS011;41787;53.570;10.032;2022-12-18T07:41:30;17.30;;;11.15;;
40449;SDS011;41787;53.570;10.032;2022-12-18T07:43:56;25.35;;;10.55;;
40449;SDS011;41787;53.570;10.032;2022-12-18T07:46:22;19.50;;;10.70;;
40449;SDS011;41787;53.570;10.032;2022-12-18T07:48:48;18.20;;;10.73;;
40449;SDS011;41787;53.570;10.032;2022-12-18T07:51:14;22.00;;;11.13;;
40449;SDS011;41787;53.570;10.032;2022-12-18T07:53:40;18.80;;;10.10;;
40449;SDS011;41787;53.570;10.032;2022-12-18T07:56:07;19.50;;;11.05;;
40449;SDS011;41787;53.570;10.032;2022-12-18T07:58:34;21.40;;;11.13;;
40449;SDS011;41787;53.570;10.032;2022-12-18T08:01:07;20.75;;;11.18;;
40449;SDS011;41787;53.570;10.032;2022-12-18T08:03:33;20.63;;;10.30;;
40449;SDS011;41787;53.570;10.032;2022-12-18T08:06:00;21.35;;;11.52;;
40449;SDS011;41787;53.570;10.032;2022-12-18T08:08:26;21.67;;;11.77;;
40449;SDS011;41787;53.570;10.032;2022-12-18T08:10:52;16.80;;;11.00;;
40449;SDS011;41787;53.570;10.032;2022-12-18T08:13:18;26.35;;;12.48;;
40449;SDS011;41787;53.570;10.032;2022-12-18T08:15:44;25.25;;;12.15;;
40449;SDS011;41787;53.570;10.032;2022-12-18T08:18:10;19.50;;;11.60;;
40449;SDS011;41787;53.570;10.032;2022-12-18T08:23:28;22.27;;;11.57;;
40449;SDS011;41787;53.570;10.032;2022-12-18T08:25:54;21.00;;;10.82;;
40449;SDS011;41787;53.570;10.032;2022-12-18T08:28:20;26.90;;;11.52;;
40449;SDS011;41787;53.570;10.032;2022-12-18T08:33:52;25.05;;;13.02;;
40449;SDS011;41787;53.570;10.032;2022-12-18T08:36:20;19.60;;;11.70;;
40449;SDS011;41787;53.570;10.032;2022-12-18T08:38:46;20.77;;;12.73;;
40449;SDS011;41787;53.570;10.032;2022-12-18T08:41:13;22.15;;;11.55;;
40449;SDS011;41787;53.570;10.032;2022-12-18T08:43:39;24.58;;;12.48;;
40449;SDS011;41787;53.570;10.032;2022-12-18T08:46:25;22.08;;;11.85;;
40449;SDS011;41787;53.570;10.032;2022-12-18T08:48:51;22.98;;;12.55;;
40449;SDS011;41787;53.570;10.032;2022-12-18T08:51:18;24.98;;;11.80;;
40449;SDS011;41787;53.570;10.032;2022-12-18T08:53:44;21.70;;;11.88;;
40449;SDS011;41787;53.570;10.032;2022-12-18T08:56:11;24.40;;;12.30;;
40449;SDS011;41787;53.570;10.032;2022-12-18T08:58:37;21.80;;;12.85;;
40449;SDS011;41787;53.570;10.032;2022-12-18T09:01:04;22.42;;;12.40;;
40449;SDS011;41787;53.570;10.032;2022-12-18T09:03:32;23.98;;;12.63;;
40449;SDS011;41787;53.570;10.032;2022-12-18T09:05:58;24.80;;;11.40;;
40449;SDS011;41787;53.570;10.032;2022-12-18T09:08:25;26.42;;;11.95;;
40449;SDS011;41787;53.570;10.032;2022-12-18T09:10:51;23.13;;;11.75;;
40449;SDS011;41787;53.570;10.032;2022-12-18T09:13:17;25.70;;;12.52;;
40449;SDS011;41787;53.570;10.032;2022-12-18T09:18:24;22.45;;;11.80;;
40449;SDS011;41787;53.570;10.032;2022-12-18T09:20:52;24.95;;;12.90;;
40449;SDS011;41787;53.570;10.032;2022-12-18T09:23:19;22.52;;;12.48;;
40449;SDS011;41787;53.570;10.032;2022-12-18T09:25:45;23.83;;;12.55;;
40449;SDS011;41787;53.570;10.032;2022-12-18T09:30:37;23.00;;;13.05;;
40449;SDS011;41787;53.570;10.032;2022-12-18T09:33:03;22.90;;;12.30;;
40449;SDS011;41787;53.570;10.032;2022-12-18T09:35:29;24.10;;;12.32;;
40449;SDS011;41787;53.570;10.032;2022-12-18T09:37:55;27.42;;;13.05;;
40449;SDS011;41787;53.570;10.032;2022-12-18T09:40:22;23.58;;;12.52;;
40449;SDS011;41787;53.570;10.032;2022-12-18T09:42:51;24.55;;;12.57;;
40449;SDS011;41787;53.570;10.032;2022-12-18T09:45:21;20.10;;;10.98;;
40449;SDS011;41787;53.570;10.032;2022-12-18T09:47:47;23.05;;;12.50;;
40449;SDS011;41787;53.570;10.032;2022-12-18T09:50:35;27.80;;;13.25;;
40449;SDS011;41787;53.570;10.032;2022-12-18T09:53:02;22.95;;;11.98;;
40449;SDS011;41787;53.570;10.032;2022-12-18T09:55:35;19.27;;;10.35;;
40449;SDS011;41787;53.570;10.032;2022-12-18T09:58:04;19.83;;;11.00;;
40449;SDS011;41787;53.570;10.032;2022-12-18T10:00:34;22.98;;;11.95;;
40449;SDS011;41787;53.570;10.032;2022-12-18T10:03:45;20.52;;;11.45;;
40449;SDS011;41787;53.570;10.032;2022-12-18T10:06:10;19.63;;;11.15;;
40449;SDS011;41787;53.570;10.032;2022-12-18T10:16:41;21.23;;;11.63;;
40449;SDS011;41787;53.570;10.032;2022-12-18T10:21:41;21.02;;;11.65;;
40449;SDS011;41787;53.570;10.032;2022-12-18T10:26:55;22.92;;;11.18;;
40449;SDS011;41787;53.570;10.032;2022-12-18T10:29:25;28.17;;;12.70;;
40449;SDS011;41787;53.570;10.032;2022-12-18T10:31:51;20.80;;;11.90;;
40449;SDS011;41787;53.570;10.032;2022-12-18T10:34:19;21.88;;;11.80;;
40449;SDS011;41787;53.570;10.032;2022-12-18T10:36:46;25.02;;;11.40;;
40449;SDS011;41787;53.570;10.032;2022-12-18T10:39:22;22.27;;;11.65;;
40449;SDS011;41787;53.570;10.032;2022-12-18T10:41:48;22.60;;;11.88;;
40449;SDS011;41787;53.570;10.032;2022-12-18T10:46:46;21.92;;;11.18;;
40449;SDS011;41787;53.570;10.032;2022-12-18T10:49:19;24.08;;;12.35;;
40449;SDS011;41787;53.570;10.032;2022-12-18T10:51:47;25.92;;;12.60;;
40449;SDS011;41787;53.570;10.032;2022-12-18T10:54:25;24.42;;;11.75;;
40449;SDS011;41787;53.570;10.032;2022-12-18T10:56:51;20.42;;;11.35;;
40449;SDS011;41787;53.570;10.032;2022-12-18T10:59:17;17.00;;;9.25;;
40449;SDS011;41787;53.570;10.032;2022-12-18T11:04:26;21.90;;;11.95;;
40449;SDS011;41787;53.570;10.032;2022-12-18T11:06:56;20.08;;;12.18;;
40449;SDS011;41787;53.570;10.032;2022-12-18T11:09:39;23.63;;;12.20;;
40449;SDS011;41787;53.570;10.032;2022-12-18T11:12:19;19.20;;;10.93;;
40449;SDS011;41787;53.570;10.032;2022-12-18T11:17:21;22.77;;;10.52;;
40449;SDS011;41787;53.570;10.032;2022-12-18T11:19:54;22.35;;;11.98;;
40449;SDS011;41787;53.570;10.032;2022-12-18T11:22:24;20.50;;;10.73;;
40449;SDS011;41787;53.570;10.032;2022-12-18T11:25:17;21.43;;;12.13;;
40449;SDS011;41787;53.570;10.032;2022-12-18T11:30:26;19.85;;;12.00;;
40449;SDS011;41787;53.570;10.032;2022-12-18T11:35:43;23.48;;;11.32;;
40449;SDS011;41787;53.570;10.032;2022-12-18T11:40:45;22.85;;;12.95;;
40449;SDS011;41787;53.570;10.032;2022-12-18T11:46:02;23.67;;;12.27;;
40449;SDS011;41787;53.570;10.032;2022-12-18T11:48:44;23.00;;;11.60;;
40449;SDS011;41787;53.570;10.032;2022-12-18T11:51:35;27.63;;;14.23;;
40449;SDS011;41787;53.570;10.032;2022-12-18T11:54:04;22.83;;;12.77;;
40449;SDS011;41787;53.570;10.032;2022-12-18T11:56:51;23.67;;;13.07;;
40449;SDS011;41787;53.570;10.032;2022-12-18T12:20:42;25.63;;;13.57;;
40449;SDS011;41787;53.570;10.032;2022-12-18T12:34:34;25.42;;;13.32;;
40449;SDS011;41787;53.570;10.032;2022-12-18T12:39:43;23.13;;;11.80;;
40449;SDS011;41787;53.570;10.032;2022-12-18T12:42:15;23.80;;;13.15;;
40449;SDS011;41787;53.570;10.032;2022-12-18T12:45:01;24.05;;;12.50;;
40449;SDS011;41787;53.570;10.032;2022-12-18T12:47:33;19.35;;;9.93;;
40449;SDS011;41787;53.570;10.032;2022-12-18T12:50:02;22.30;;;12.57;;
40449;SDS011;41787;53.570;10.032;2022-12-18T12:54:57;23.48;;;12.30;;
40449;SDS011;41787;53.570;10.032;2022-12-18T12:57:31;26.83;;;12.73;;
40449;SDS011;41787;53.570;10.032;2022-12-18T13:02:36;24.40;;;11.65;;
40449;SDS011;41787;53.570;10.032;2022-12-18T13:07:54;21.52;;;11.93;;
40449;SDS011;41787;53.570;10.032;2022-12-18T13:10:24;29.52;;;13.82;;
40449;SDS011;41787;53.570;10.032;2022-12-18T13:13:09;23.95;;;12.75;;
40449;SDS011;41787;53.570;10.032;2022-12-18T13:23:01;26.05;;;14.05;;
40449;SDS011;41787;53.570;10.032;2022-12-18T13:40:55;29.23;;;13.10;;
40449;SDS011;41787;53.570;10.032;2022-12-18T13:43:23;28.70;;;14.73;;
40449;SDS011;41787;53.570;10.032;2022-12-18T13:48:24;30.40;;;13.23;;
40449;SDS011;41787;53.570;10.032;2022-12-18T13:51:02;28.23;;;12.55;;
40449;SDS011;41787;53.570;10.032;2022-12-18T13:53:30;23.42;;;12.45;;
40449;SDS011;41787;53.570;10.032;2022-12-18T13:55:58;26.20;;;12.75;;
40449;SDS011;41787;53.570;10.032;2022-12-18T13:58:24;27.38;;;13.40;;
40449;SDS011;41787;53.570;10.032;2022-12-18T14:00:50;26.50;;;12.48;;
40449;SDS011;41787;53.570;10.032;2022-12-18T14:03:21;27.58;;;12.38;;
40449;SDS011;41787;53.570;10.032;2022-12-18T14:08:39;29.92;;;13.18;;
40449;SDS011;41787;53.570;10.032;2022-12-18T14:11:05;26.17;;;12.93;;
40449;SDS011;41787;53.570;10.032;2022-12-18T14:13:37;28.77;;;13.40;;
40449;SDS011;41787;53.570;10.032;2022-12-18T14:16:04;37.85;;;14.02;;
40449;SDS011;41787;53.570;10.032;2022-12-18T14:18:36;28.92;;;12.55;;
40449;SDS011;41787;53.570;10.032;2022-12-18T14:21:04;30.10;;;14.18;;
40449;SDS011;41787;53.570;10.032;2022-12-18T14:23:38;27.85;;;13.05;;
40449;SDS011;41787;53.570;10.032;2022-12-18T14:28:46;25.90;;;12.55;;
40449;SDS011;41787;53.570;10.032;2022-12-18T14:31:18;28.10;;;13.30;;
40449;SDS011;41787;53.570;10.032;2022-12-18T14:33:44;29.95;;;14.13;;
40449;SDS011;41787;53.570;10.032;2022-12-18T14:36:27;33.00;;;15.32;;
40449;SDS011;41787;53.570;10.032;2022-12-18T14:38:58;36.92;;;15.00;;
40449;SDS011;41787;53.570;10.032;2022-12-18T14:41:25;31.95;;;14.13;;
40449;SDS011;41787;53.570;10.032;2022-12-18T14:43:52;34.83;;;13.75;;
40449;SDS011;41787;53.570;10.032;2022-12-18T14:46:29;41.17;;;15.15;;
40449;SDS011;41787;53.570;10.032;2022-12-18T14:48:55;34.45;;;14.82;;
40449;SDS011;41787;53.570;10.032;2022-12-18T14:51:25;33.97;;;14.37;;
40449;SDS011;41787;53.570;10.032;2022-12-18T14:53:55;38.90;;;15.98;;
40449;SDS011;41787;53.570;10.032;2022-12-18T14:58:54;37.70;;;16.67;;
40449;SDS011;41787;53.570;10.032;2022-12-18T15:03:50;30.67;;;13.50;;
40449;SDS011;41787;53.570;10.032;2022-12-18T15:06:21;31.50;;;16.15;;
40449;SDS011;41787;53.570;10.032;2022-12-18T15:08:50;35.63;;;16.08;;
40449;SDS011;41787;53.570;10.032;2022-12-18T15:16:53;42.05;;;16.90;;
40449;SDS011;41787;53.570;10.032;2022-12-18T15:19:20;35.88;;;14.30;;
40449;SDS011;41787;53.570;10.032;2022-12-18T15:21:46;35.83;;;15.40;;
40449;SDS011;41787;53.570;10.032;2022-12-18T15:24:20;36.38;;;15.10;;
40449;SDS011;41787;53.570;10.032;2022-12-18T15:26:50;39.17;;;16.85;;
40449;SDS011;41787;53.570;10.032;2022-12-18T15:29:20;29.50;;;13.05;;
40449;SDS011;41787;53.570;10.032;2022-12-18T15:31:59;37.17;;;15.23;;
40449;SDS011;41787;53.570;10.032;2022-12-18T15:34:25;35.67;;;16.45;;
40449;SDS011;41787;53.570;10.032;2022-12-18T15:36:59;39.92;;;16.08;;
40449;SDS011;41787;53.570;10.032;2022-12-18T15:39:26;42.88;;;15.05;;
40449;SDS011;41787;53.570;10.032;2022-12-18T15:41:52;38.45;;;16.40;;
40449;SDS011;41787;53.570;10.032;2022-12-18T15:44:37;42.90;;;15.50;;
40449;SDS011;41787;53.570;10.032;2022-12-18T15:47:04;33.00;;;14.18;;
40449;SDS011;41787;53.570;10.032;2022-12-18T15:49:33;37.42;;;15.80;;
40449;SDS011;41787;53.570;10.032;2022-12-18T15:51:59;37.92;;;15.30;;
40449;SDS011;41787;53.570;10.032;2022-12-18T15:54:25;35.95;;;16.40;;
40449;SDS011;41787;53.570;10.032;2022-12-18T15:57:10;33.42;;;13.52;;
40449;SDS011;41787;53.570;10.032;2022-12-18T15:59:50;40.15;;;15.57;;
40449;SDS011;41787;53.570;10.032;2022-12-18T16:02:18;37.40;;;14.95;;
40449;SDS011;41787;53.570;10.032;2022-12-18T16:04:47;38.05;;;15.35;;
40449;SDS011;41787;53.570;10.032;2022-12-18T16:07:13;35.03;;;14.87;;
40449;SDS011;41787;53.570;10.032;2022-12-18T16:09:39;34.45;;;14.10;;
40449;SDS011;41787;53.570;10.032;2022-12-18T16:12:06;36.67;;;15.65;;
40449;SDS011;41787;53.570;10.032;2022-12-18T16:14:32;34.08;;;14.20;;
40449;SDS011;41787;53.570;10.032;2022-12-18T16:16:59;32.70;;;13.85;;
40449;SDS011;41787;53.570;10.032;2022-12-18T16:19:25;33.38;;;15.10;;
40449;SDS011;41787;53.570;10.032;2022-12-18T16:21:52;41.63;;;15.98;;
40449;SDS011;41787;53.570;10.032;2022-12-18T16:24:21;33.88;;;13.45;;
40449;SDS011;41787;53.570;10.032;2022-12-18T16:26:48;35.22;;;15.80;;
40449;SDS011;41787;53.570;10.032;2022-12-18T16:29:16;32.50;;;14.05;;
40449;SDS011;41787;53.570;10.032;2022-12-18T16:31:42;37.60;;;14.05;;
40449;SDS011;41787;53.570;10.032;2022-12-18T16:34:21;29.92;;;13.10;;
40449;SDS011;41787;53.570;10.032;2022-12-18T16:39:13;25.77;;;12.32;;
40449;SDS011;41787;53.570;10.032;2022-12-18T16:41:39;29.42;;;13.57;;
40449;SDS011;41787;53.570;10.032;2022-12-18T16:44:05;31.02;;;13.40;;
40449;SDS011;41787;53.570;10.032;2022-12-18T16:46:31;26.42;;;12.52;;
40449;SDS011;41787;53.570;10.032;2022-12-18T16:48:58;32.53;;;15.00;;
40449;SDS011;41787;53.570;10.032;2022-12-18T16:51:24;28.13;;;13.18;;
40449;SDS011;41787;53.570;10.032;2022-12-18T16:53:50;41.22;;;16.48;;
40449;SDS011;41787;53.570;10.032;2022-12-18T16:56:16;31.52;;;16.05;;